sensor_id;sensor_type;location;lat;lon;timestamp;P1;durP1;ratioP1;P2;durP2;ratioP2
25125;SDS011;13106;50.808;5.670;2023-03-08T00:00:10;29.27;;;16.50;;
25125;SDS011;13106;50.808;5.670;2023-03-08T00:02:37;29.35;;;15.70;;
25125;SDS011;13106;50.808;5.670;2023-03-08T00:05:03;28.20;;;16.15;;
25125;SDS011;13106;50.808;5.670;2023-03-08T00:07:30;30.77;;;17.30;;
25125;SDS011;13106;50.808;5.670;2023-03-08T00:09:56;30.50;;;16.17;;
25125;SDS011;13106;50.808;5.670;2023-03-08T00:12:22;31.33;;;16.90;;
25125;SDS011;13106;50.808;5.670;2023-03-08T00:14:49;37.33;;;17.98;;
25125;SDS011;13106;50.808;5.670;2023-03-08T00:17:15;37.92;;;17.58;;
25125;SDS011;13106;50.808;5.670;2023-03-08T00:19:41;35.65;;;18.02;;
25125;SDS011;13106;50.808;5.670;2023-03-08T00:22:08;34.30;;;16.98;;
25125;SDS011;13106;50.808;5.670;2023-03-08T00:24:34;41.85;;;18.88;;
25125;SDS011;13106;50.808;5.670;2023-03-08T00:27:00;38.75;;;18.67;;
25125;SDS011;13106;50.808;5.670;2023-03-08T00:29:26;39.63;;;19.50;;
25125;SDS011;13106;50.808;5.670;2023-03-08T00:31:52;35.55;;;17.65;;
25125;SDS011;13106;50.808;5.670;2023-03-08T00:34:18;33.35;;;17.67;;
25125;SDS011;13106;50.808;5.670;2023-03-08T00:36:44;32.10;;;18.25;;
25125;SDS011;13106;50.808;5.670;2023-03-08T00:39:10;33.67;;;17.85;;
25125;SDS011;13106;50.808;5.670;2023-03-08T00:41:38;33.35;;;17.00;;
25125;SDS011;13106;50.808;5.670;2023-03-08T00:44:04;24.48;;;14.18;;
25125;SDS011;13106;50.808;5.670;2023-03-08T00:46:30;22.95;;;14.32;;
25125;SDS011;13106;50.808;5.670;2023-03-08T00:48:56;27.88;;;15.88;;
25125;SDS011;13106;50.808;5.670;2023-03-08T00:51:22;31.02;;;15.70;;
25125;SDS011;13106;50.808;5.670;2023-03-08T00:53:48;29.67;;;15.57;;
25125;SDS011;13106;50.808;5.670;2023-03-08T00:56:16;27.08;;;13.82;;
25125;SDS011;13106;50.808;5.670;2023-03-08T00:58:42;26.33;;;13.95;;
25125;SDS011;13106;50.808;5.670;2023-03-08T01:01:10;26.48;;;14.35;;
25125;SDS011;13106;50.808;5.670;2023-03-08T01:03:38;32.55;;;14.88;;
25125;SDS011;13106;50.808;5.670;2023-03-08T01:06:05;27.73;;;12.95;;
25125;SDS011;13106;50.808;5.670;2023-03-08T01:08:32;26.85;;;13.43;;
25125;SDS011;13106;50.808;5.670;2023-03-08T01:10:58;27.35;;;15.60;;
25125;SDS011;13106;50.808;5.670;2023-03-08T01:13:25;22.10;;;13.00;;
25125;SDS011;13106;50.808;5.670;2023-03-08T01:15:51;28.15;;;13.65;;
25125;SDS011;13106;50.808;5.670;2023-03-08T01:18:17;23.00;;;11.90;;
25125;SDS011;13106;50.808;5.670;2023-03-08T01:20:44;23.38;;;12.25;;
25125;SDS011;13106;50.808;5.670;2023-03-08T01:23:10;19.98;;;11.13;;
25125;SDS011;13106;50.808;5.670;2023-03-08T01:25:36;21.77;;;11.75;;
25125;SDS011;13106;50.808;5.670;2023-03-08T01:28:02;17.17;;;9.93;;
25125;SDS011;13106;50.808;5.670;2023-03-08T01:30:28;17.33;;;10.80;;
25125;SDS011;13106;50.808;5.670;2023-03-08T01:32:54;17.48;;;10.38;;
25125;SDS011;13106;50.808;5.670;2023-03-08T01:35:20;17.10;;;10.63;;
25125;SDS011;13106;50.808;5.670;2023-03-08T01:37:49;19.63;;;10.98;;
25125;SDS011;13106;50.808;5.670;2023-03-08T01:40:17;22.17;;;10.38;;
25125;SDS011;13106;50.808;5.670;2023-03-08T01:42:43;20.45;;;12.75;;
25125;SDS011;13106;50.808;5.670;2023-03-08T01:46:00;20.27;;;12.30;;
25125;SDS011;13106;50.808;5.670;2023-03-08T01:48:01;20.15;;;12.20;;
25125;SDS011;13106;50.808;5.670;2023-03-08T01:50:28;23.98;;;13.45;;
25125;SDS011;13106;50.808;5.670;2023-03-08T01:52:54;27.05;;;13.32;;
25125;SDS011;13106;50.808;5.670;2023-03-08T01:55:20;26.70;;;14.07;;
25125;SDS011;13106;50.808;5.670;2023-03-08T01:57:47;30.10;;;15.13;;
25125;SDS011;13106;50.808;5.670;2023-03-08T02:00:15;32.05;;;15.82;;
25125;SDS011;13106;50.808;5.670;2023-03-08T02:02:43;36.25;;;17.75;;
25125;SDS011;13106;50.808;5.670;2023-03-08T02:05:12;31.10;;;16.17;;
25125;SDS011;13106;50.808;5.670;2023-03-08T02:07:39;33.70;;;18.00;;
25125;SDS011;13106;50.808;5.670;2023-03-08T02:10:05;33.25;;;17.77;;
25125;SDS011;13106;50.808;5.670;2023-03-08T02:12:31;30.92;;;17.67;;
25125;SDS011;13106;50.808;5.670;2023-03-08T02:14:58;40.38;;;19.90;;
25125;SDS011;13106;50.808;5.670;2023-03-08T02:17:25;31.55;;;17.80;;
25125;SDS011;13106;50.808;5.670;2023-03-08T02:20:35;30.50;;;17.05;;
25125;SDS011;13106;50.808;5.670;2023-03-08T02:22:42;30.75;;;16.85;;
25125;SDS011;13106;50.808;5.670;2023-03-08T02:25:18;32.17;;;16.95;;
25125;SDS011;13106;50.808;5.670;2023-03-08T02:27:44;29.30;;;16.48;;
25125;SDS011;13106;50.808;5.670;2023-03-08T02:30:11;29.77;;;16.73;;
25125;SDS011;13106;50.808;5.670;2023-03-08T02:32:37;29.52;;;16.88;;
25125;SDS011;13106;50.808;5.670;2023-03-08T02:35:03;31.45;;;17.20;;
25125;SDS011;13106;50.808;5.670;2023-03-08T02:37:30;28.40;;;16.65;;
25125;SDS011;13106;50.808;5.670;2023-03-08T02:39:56;30.08;;;16.85;;
25125;SDS011;13106;50.808;5.670;2023-03-08T02:42:22;25.52;;;16.15;;
25125;SDS011;13106;50.808;5.670;2023-03-08T02:44:49;27.88;;;15.27;;
25125;SDS011;13106;50.808;5.670;2023-03-08T02:47:15;24.13;;;14.82;;
25125;SDS011;13106;50.808;5.670;2023-03-08T02:49:41;24.77;;;15.77;;
25125;SDS011;13106;50.808;5.670;2023-03-08T02:52:07;27.70;;;14.60;;
25125;SDS011;13106;50.808;5.670;2023-03-08T02:54:33;33.13;;;16.90;;
25125;SDS011;13106;50.808;5.670;2023-03-08T02:56:59;24.80;;;14.52;;
25125;SDS011;13106;50.808;5.670;2023-03-08T02:59:25;25.92;;;14.88;;
25125;SDS011;13106;50.808;5.670;2023-03-08T03:01:51;24.13;;;13.80;;
25125;SDS011;13106;50.808;5.670;2023-03-08T03:04:17;25.75;;;14.40;;
25125;SDS011;13106;50.808;5.670;2023-03-08T03:06:43;22.50;;;13.20;;
25125;SDS011;13106;50.808;5.670;2023-03-08T03:09:09;25.10;;;13.55;;
25125;SDS011;13106;50.808;5.670;2023-03-08T03:11:38;21.48;;;12.32;;
25125;SDS011;13106;50.808;5.670;2023-03-08T03:14:04;19.90;;;11.77;;
25125;SDS011;13106;50.808;5.670;2023-03-08T03:16:30;18.98;;;11.45;;
25125;SDS011;13106;50.808;5.670;2023-03-08T03:18:56;20.75;;;11.30;;
25125;SDS011;13106;50.808;5.670;2023-03-08T03:21:22;22.08;;;11.52;;
25125;SDS011;13106;50.808;5.670;2023-03-08T03:23:49;15.45;;;9.90;;
25125;SDS011;13106;50.808;5.670;2023-03-08T03:26:16;12.88;;;8.93;;
25125;SDS011;13106;50.808;5.670;2023-03-08T03:28:42;14.07;;;9.43;;
25125;SDS011;13106;50.808;5.670;2023-03-08T03:31:09;12.63;;;8.13;;
25125;SDS011;13106;50.808;5.670;2023-03-08T03:33:36;12.23;;;7.85;;
25125;SDS011;13106;50.808;5.670;2023-03-08T03:36:02;13.27;;;8.15;;
25125;SDS011;13106;50.808;5.670;2023-03-08T03:38:28;14.75;;;8.00;;
25125;SDS011;13106;50.808;5.670;2023-03-08T03:41:01;14.60;;;8.65;;
25125;SDS011;13106;50.808;5.670;2023-03-08T03:43:28;14.23;;;9.45;;
25125;SDS011;13106;50.808;5.670;2023-03-08T03:45:57;13.15;;;9.15;;
25125;SDS011;13106;50.808;5.670;2023-03-08T03:48:24;14.73;;;9.30;;
25125;SDS011;13106;50.808;5.670;2023-03-08T03:50:56;14.05;;;9.10;;
25125;SDS011;13106;50.808;5.670;2023-03-08T03:53:23;15.57;;;10.18;;
25125;SDS011;13106;50.808;5.670;2023-03-08T03:55:49;14.77;;;9.23;;
25125;SDS011;13106;50.808;5.670;2023-03-08T03:58:15;15.73;;;9.82;;
25125;SDS011;13106;50.808;5.670;2023-03-08T04:00:41;13.63;;;9.38;;
25125;SDS011;13106;50.808;5.670;2023-03-08T04:03:08;15.32;;;9.70;;
25125;SDS011;13106;50.808;5.670;2023-03-08T04:05:34;14.07;;;8.23;;
25125;SDS011;13106;50.808;5.670;2023-03-08T04:08:00;13.57;;;8.68;;
25125;SDS011;13106;50.808;5.670;2023-03-08T04:10:26;11.45;;;8.43;;
25125;SDS011;13106;50.808;5.670;2023-03-08T04:12:52;13.13;;;8.43;;
25125;SDS011;13106;50.808;5.670;2023-03-08T04:15:18;13.52;;;7.53;;
25125;SDS011;13106;50.808;5.670;2023-03-08T04:17:44;12.13;;;7.82;;
25125;SDS011;13106;50.808;5.670;2023-03-08T04:20:10;13.38;;;8.10;;
25125;SDS011;13106;50.808;5.670;2023-03-08T04:22:38;11.35;;;7.28;;
25125;SDS011;13106;50.808;5.670;2023-03-08T04:25:04;10.70;;;7.00;;
25125;SDS011;13106;50.808;5.670;2023-03-08T04:27:30;10.75;;;6.80;;
25125;SDS011;13106;50.808;5.670;2023-03-08T04:29:56;8.35;;;6.32;;
25125;SDS011;13106;50.808;5.670;2023-03-08T04:32:22;8.60;;;6.30;;
25125;SDS011;13106;50.808;5.670;2023-03-08T04:34:48;9.75;;;6.32;;
25125;SDS011;13106;50.808;5.670;2023-03-08T04:37:14;9.05;;;5.90;;
25125;SDS011;13106;50.808;5.670;2023-03-08T04:39:40;8.35;;;6.18;;
25125;SDS011;13106;50.808;5.670;2023-03-08T04:42:06;8.05;;;5.25;;
25125;SDS011;13106;50.808;5.670;2023-03-08T04:44:32;9.90;;;6.90;;
25125;SDS011;13106;50.808;5.670;2023-03-08T04:46:58;9.38;;;6.05;;
25125;SDS011;13106;50.808;5.670;2023-03-08T04:49:25;8.27;;;6.32;;
25125;SDS011;13106;50.808;5.670;2023-03-08T04:51:51;10.55;;;6.43;;
25125;SDS011;13106;50.808;5.670;2023-03-08T04:54:17;10.07;;;7.03;;
25125;SDS011;13106;50.808;5.670;2023-03-08T04:56:43;8.40;;;6.22;;
25125;SDS011;13106;50.808;5.670;2023-03-08T04:59:09;11.02;;;6.15;;
25125;SDS011;13106;50.808;5.670;2023-03-08T05:01:35;8.85;;;6.40;;
25125;SDS011;13106;50.808;5.670;2023-03-08T05:04:01;8.90;;;6.45;;
25125;SDS011;13106;50.808;5.670;2023-03-08T05:06:27;11.00;;;7.60;;
25125;SDS011;13106;50.808;5.670;2023-03-08T05:08:53;8.23;;;6.30;;
25125;SDS011;13106;50.808;5.670;2023-03-08T05:11:21;8.38;;;6.50;;
25125;SDS011;13106;50.808;5.670;2023-03-08T05:13:47;9.80;;;6.53;;
25125;SDS011;13106;50.808;5.670;2023-03-08T05:16:14;11.88;;;6.13;;
25125;SDS011;13106;50.808;5.670;2023-03-08T05:18:40;9.35;;;6.45;;
25125;SDS011;13106;50.808;5.670;2023-03-08T05:21:07;8.75;;;6.53;;
25125;SDS011;13106;50.808;5.670;2023-03-08T05:23:34;9.75;;;7.15;;
25125;SDS011;13106;50.808;5.670;2023-03-08T05:26:01;10.32;;;7.35;;
25125;SDS011;13106;50.808;5.670;2023-03-08T05:28:28;8.65;;;6.80;;
25125;SDS011;13106;50.808;5.670;2023-03-08T05:33:33;10.85;;;7.65;;
25125;SDS011;13106;50.808;5.670;2023-03-08T05:35:59;10.90;;;7.70;;
25125;SDS011;13106;50.808;5.670;2023-03-08T05:38:25;10.30;;;7.57;;
25125;SDS011;13106;50.808;5.670;2023-03-08T05:40:52;11.20;;;6.75;;
25125;SDS011;13106;50.808;5.670;2023-03-08T05:43:18;10.95;;;8.05;;
25125;SDS011;13106;50.808;5.670;2023-03-08T05:46:00;13.18;;;8.02;;
25125;SDS011;13106;50.808;5.670;2023-03-08T05:48:27;12.77;;;8.10;;
25125;SDS011;13106;50.808;5.670;2023-03-08T05:50:53;11.00;;;7.55;;
25125;SDS011;13106;50.808;5.670;2023-03-08T05:53:20;15.63;;;8.70;;
25125;SDS011;13106;50.808;5.670;2023-03-08T05:55:46;10.25;;;7.75;;
25125;SDS011;13106;50.808;5.670;2023-03-08T05:58:12;12.02;;;7.95;;
25125;SDS011;13106;50.808;5.670;2023-03-08T06:00:38;10.02;;;7.60;;
25125;SDS011;13106;50.808;5.670;2023-03-08T06:03:04;13.98;;;8.77;;
25125;SDS011;13106;50.808;5.670;2023-03-08T06:05:30;11.43;;;8.18;;
25125;SDS011;13106;50.808;5.670;2023-03-08T06:07:57;11.52;;;7.80;;
25125;SDS011;13106;50.808;5.670;2023-03-08T06:10:23;11.10;;;8.55;;
25125;SDS011;13106;50.808;5.670;2023-03-08T06:12:49;112.45;;;45.35;;
25125;SDS011;13106;50.808;5.670;2023-03-08T06:15:15;48.83;;;25.48;;
25125;SDS011;13106;50.808;5.670;2023-03-08T06:17:41;14.18;;;10.80;;
25125;SDS011;13106;50.808;5.670;2023-03-08T06:20:08;11.68;;;9.40;;
25125;SDS011;13106;50.808;5.670;2023-03-08T06:22:34;13.32;;;9.02;;
25125;SDS011;13106;50.808;5.670;2023-03-08T06:25:00;13.52;;;10.25;;
25125;SDS011;13106;50.808;5.670;2023-03-08T06:27:26;13.05;;;9.95;;
25125;SDS011;13106;50.808;5.670;2023-03-08T06:29:53;14.43;;;9.70;;
25125;SDS011;13106;50.808;5.670;2023-03-08T06:32:19;19.00;;;11.95;;
25125;SDS011;13106;50.808;5.670;2023-03-08T06:34:45;14.30;;;10.00;;
25125;SDS011;13106;50.808;5.670;2023-03-08T06:37:12;16.27;;;11.52;;
25125;SDS011;13106;50.808;5.670;2023-03-08T06:39:38;17.20;;;12.93;;
25125;SDS011;13106;50.808;5.670;2023-03-08T06:42:04;14.85;;;11.27;;
25125;SDS011;13106;50.808;5.670;2023-03-08T06:44:32;17.48;;;12.55;;
25125;SDS011;13106;50.808;5.670;2023-03-08T06:46:58;15.80;;;11.63;;
25125;SDS011;13106;50.808;5.670;2023-03-08T06:49:24;15.65;;;11.23;;
25125;SDS011;13106;50.808;5.670;2023-03-08T06:51:50;15.85;;;11.00;;
25125;SDS011;13106;50.808;5.670;2023-03-08T06:54:16;18.25;;;11.98;;
25125;SDS011;13106;50.808;5.670;2023-03-08T06:56:43;19.17;;;14.40;;
25125;SDS011;13106;50.808;5.670;2023-03-08T06:59:10;15.38;;;11.77;;
25125;SDS011;13106;50.808;5.670;2023-03-08T07:01:36;18.45;;;11.73;;
25125;SDS011;13106;50.808;5.670;2023-03-08T07:04:02;15.23;;;10.93;;
25125;SDS011;13106;50.808;5.670;2023-03-08T07:06:28;13.60;;;10.55;;
25125;SDS011;13106;50.808;5.670;2023-03-08T07:08:54;14.00;;;10.02;;
25125;SDS011;13106;50.808;5.670;2023-03-08T07:11:20;14.52;;;10.07;;
25125;SDS011;13106;50.808;5.670;2023-03-08T07:13:46;14.55;;;10.38;;
25125;SDS011;13106;50.808;5.670;2023-03-08T07:16:13;14.20;;;10.25;;
25125;SDS011;13106;50.808;5.670;2023-03-08T07:18:39;15.60;;;10.77;;
25125;SDS011;13106;50.808;5.670;2023-03-08T07:21:06;15.10;;;10.30;;
25125;SDS011;13106;50.808;5.670;2023-03-08T07:23:34;14.30;;;9.55;;
25125;SDS011;13106;50.808;5.670;2023-03-08T07:26:03;42.42;;;24.20;;
25125;SDS011;13106;50.808;5.670;2023-03-08T07:28:29;106.85;;;56.70;;
25125;SDS011;13106;50.808;5.670;2023-03-08T07:30:55;45.50;;;32.38;;
25125;SDS011;13106;50.808;5.670;2023-03-08T07:33:21;41.28;;;29.27;;
25125;SDS011;13106;50.808;5.670;2023-03-08T07:35:47;29.98;;;20.83;;
25125;SDS011;13106;50.808;5.670;2023-03-08T07:38:13;15.85;;;12.00;;
25125;SDS011;13106;50.808;5.670;2023-03-08T07:40:39;14.75;;;12.23;;
25125;SDS011;13106;50.808;5.670;2023-03-08T07:43:05;18.38;;;12.88;;
25125;SDS011;13106;50.808;5.670;2023-03-08T07:45:31;19.50;;;14.63;;
25125;SDS011;13106;50.808;5.670;2023-03-08T07:47:57;14.95;;;11.27;;
25125;SDS011;13106;50.808;5.670;2023-03-08T07:50:24;14.45;;;10.55;;
25125;SDS011;13106;50.808;5.670;2023-03-08T07:52:50;12.85;;;10.15;;
25125;SDS011;13106;50.808;5.670;2023-03-08T07:55:16;15.88;;;9.80;;
25125;SDS011;13106;50.808;5.670;2023-03-08T07:57:42;14.40;;;10.20;;
25125;SDS011;13106;50.808;5.670;2023-03-08T08:00:08;13.95;;;9.98;;
25125;SDS011;13106;50.808;5.670;2023-03-08T08:02:34;12.90;;;10.55;;
25125;SDS011;13106;50.808;5.670;2023-03-08T08:05:01;14.52;;;11.20;;
25125;SDS011;13106;50.808;5.670;2023-03-08T08:07:28;13.82;;;10.85;;
25125;SDS011;13106;50.808;5.670;2023-03-08T08:09:54;12.90;;;10.40;;
25125;SDS011;13106;50.808;5.670;2023-03-08T08:12:20;15.40;;;11.45;;
25125;SDS011;13106;50.808;5.670;2023-03-08T08:14:48;15.57;;;11.32;;
25125;SDS011;13106;50.808;5.670;2023-03-08T08:17:15;11.20;;;10.07;;
25125;SDS011;13106;50.808;5.670;2023-03-08T08:19:42;12.60;;;10.18;;
25125;SDS011;13106;50.808;5.670;2023-03-08T08:22:08;12.43;;;9.98;;
25125;SDS011;13106;50.808;5.670;2023-03-08T08:24:35;14.35;;;10.32;;
25125;SDS011;13106;50.808;5.670;2023-03-08T08:27:01;12.80;;;10.05;;
25125;SDS011;13106;50.808;5.670;2023-03-08T08:29:27;12.32;;;10.40;;
25125;SDS011;13106;50.808;5.670;2023-03-08T08:31:53;14.32;;;10.43;;
25125;SDS011;13106;50.808;5.670;2023-03-08T08:34:20;12.98;;;10.65;;
25125;SDS011;13106;50.808;5.670;2023-03-08T08:36:46;14.32;;;11.07;;
25125;SDS011;13106;50.808;5.670;2023-03-08T08:39:12;13.60;;;11.02;;
25125;SDS011;13106;50.808;5.670;2023-03-08T08:41:38;16.67;;;12.95;;
25125;SDS011;13106;50.808;5.670;2023-03-08T08:44:04;14.25;;;11.57;;
25125;SDS011;13106;50.808;5.670;2023-03-08T08:46:30;14.38;;;11.27;;
25125;SDS011;13106;50.808;5.670;2023-03-08T08:48:58;14.23;;;10.52;;
25125;SDS011;13106;50.808;5.670;2023-03-08T08:51:24;14.88;;;11.20;;
25125;SDS011;13106;50.808;5.670;2023-03-08T08:53:50;14.57;;;11.50;;
25125;SDS011;13106;50.808;5.670;2023-03-08T08:56:18;14.30;;;11.15;;
25125;SDS011;13106;50.808;5.670;2023-03-08T08:58:44;22.65;;;20.63;;
25125;SDS011;13106;50.808;5.670;2023-03-08T09:01:19;22.08;;;20.05;;
25125;SDS011;13106;50.808;5.670;2023-03-08T09:03:45;20.63;;;18.75;;
25125;SDS011;13106;50.808;5.670;2023-03-08T09:06:12;17.73;;;15.98;;
25125;SDS011;13106;50.808;5.670;2023-03-08T09:08:39;16.90;;;14.77;;
25125;SDS011;13106;50.808;5.670;2023-03-08T09:11:05;16.02;;;13.23;;
25125;SDS011;13106;50.808;5.670;2023-03-08T09:13:32;18.90;;;13.63;;
25125;SDS011;13106;50.808;5.670;2023-03-08T09:15:58;28.20;;;19.55;;
25125;SDS011;13106;50.808;5.670;2023-03-08T09:18:25;16.65;;;13.30;;
25125;SDS011;13106;50.808;5.670;2023-03-08T09:20:51;13.48;;;11.68;;
25125;SDS011;13106;50.808;5.670;2023-03-08T09:23:17;18.02;;;13.65;;
25125;SDS011;13106;50.808;5.670;2023-03-08T09:25:43;20.10;;;12.80;;
25125;SDS011;13106;50.808;5.670;2023-03-08T09:28:12;17.63;;;13.55;;
25125;SDS011;13106;50.808;5.670;2023-03-08T09:30:38;19.08;;;14.82;;
25125;SDS011;13106;50.808;5.670;2023-03-08T09:33:04;17.67;;;14.65;;
25125;SDS011;13106;50.808;5.670;2023-03-08T09:35:30;20.25;;;14.63;;
25125;SDS011;13106;50.808;5.670;2023-03-08T09:37:56;20.23;;;14.48;;
25125;SDS011;13106;50.808;5.670;2023-03-08T09:40:23;18.98;;;13.05;;
25125;SDS011;13106;50.808;5.670;2023-03-08T09:42:51;18.33;;;12.43;;
25125;SDS011;13106;50.808;5.670;2023-03-08T09:45:24;17.00;;;13.20;;
25125;SDS011;13106;50.808;5.670;2023-03-08T09:53:13;16.80;;;12.02;;
25125;SDS011;13106;50.808;5.670;2023-03-08T09:55:43;18.15;;;13.00;;
25125;SDS011;13106;50.808;5.670;2023-03-08T09:58:15;19.58;;;15.30;;
25125;SDS011;13106;50.808;5.670;2023-03-08T10:00:42;18.63;;;13.80;;
25125;SDS011;13106;50.808;5.670;2023-03-08T10:03:29;23.45;;;12.40;;
25125;SDS011;13106;50.808;5.670;2023-03-08T10:06:10;17.55;;;12.10;;
25125;SDS011;13106;50.808;5.670;2023-03-08T10:11:28;20.35;;;15.23;;
25125;SDS011;13106;50.808;5.670;2023-03-08T10:13:57;17.35;;;12.95;;
25125;SDS011;13106;50.808;5.670;2023-03-08T10:16:26;16.83;;;12.88;;
25125;SDS011;13106;50.808;5.670;2023-03-08T10:21:25;16.55;;;12.02;;
25125;SDS011;13106;50.808;5.670;2023-03-08T10:26:32;17.35;;;12.48;;
25125;SDS011;13106;50.808;5.670;2023-03-08T10:28:58;17.40;;;12.20;;
25125;SDS011;13106;50.808;5.670;2023-03-08T10:31:26;16.08;;;12.27;;
25125;SDS011;13106;50.808;5.670;2023-03-08T10:33:57;14.60;;;11.38;;
25125;SDS011;13106;50.808;5.670;2023-03-08T10:36:25;14.68;;;10.77;;
25125;SDS011;13106;50.808;5.670;2023-03-08T10:38:56;15.45;;;11.73;;
25125;SDS011;13106;50.808;5.670;2023-03-08T10:41:22;14.65;;;11.32;;
25125;SDS011;13106;50.808;5.670;2023-03-08T10:43:50;17.58;;;12.20;;
25125;SDS011;13106;50.808;5.670;2023-03-08T10:46:18;14.60;;;11.23;;
25125;SDS011;13106;50.808;5.670;2023-03-08T10:48:44;16.75;;;12.95;;
25125;SDS011;13106;50.808;5.670;2023-03-08T10:51:15;17.48;;;13.30;;
25125;SDS011;13106;50.808;5.670;2023-03-08T10:53:51;14.48;;;11.68;;
25125;SDS011;13106;50.808;5.670;2023-03-08T10:56:21;15.15;;;12.75;;
25125;SDS011;13106;50.808;5.670;2023-03-08T10:58:48;15.82;;;12.45;;
25125;SDS011;13106;50.808;5.670;2023-03-08T11:01:27;14.80;;;11.50;;
25125;SDS011;13106;50.808;5.670;2023-03-08T11:06:43;14.90;;;11.43;;
25125;SDS011;13106;50.808;5.670;2023-03-08T11:09:29;14.98;;;12.35;;
25125;SDS011;13106;50.808;5.670;2023-03-08T11:11:55;17.35;;;15.30;;
25125;SDS011;13106;50.808;5.670;2023-03-08T11:14:22;15.80;;;12.40;;
25125;SDS011;13106;50.808;5.670;2023-03-08T11:17:00;17.38;;;12.88;;
25125;SDS011;13106;50.808;5.670;2023-03-08T11:19:34;17.35;;;12.15;;
25125;SDS011;13106;50.808;5.670;2023-03-08T11:34:50;26.95;;;19.80;;
25125;SDS011;13106;50.808;5.670;2023-03-08T11:42:19;15.07;;;11.27;;
25125;SDS011;13106;50.808;5.670;2023-03-08T11:58:16;12.82;;;10.10;;
25125;SDS011;13106;50.808;5.670;2023-03-08T12:00:47;22.20;;;18.98;;
25125;SDS011;13106;50.808;5.670;2023-03-08T12:03:22;43.47;;;36.50;;
25125;SDS011;13106;50.808;5.670;2023-03-08T12:05:53;192.15;;;93.03;;
25125;SDS011;13106;50.808;5.670;2023-03-08T12:10:50;194.00;;;81.78;;
25125;SDS011;13106;50.808;5.670;2023-03-08T12:13:31;110.00;;;58.10;;
25125;SDS011;13106;50.808;5.670;2023-03-08T12:18:53;19.40;;;14.38;;
25125;SDS011;13106;50.808;5.670;2023-03-08T12:26:16;32.90;;;21.98;;
25125;SDS011;13106;50.808;5.670;2023-03-08T12:29:05;21.63;;;15.23;;
25125;SDS011;13106;50.808;5.670;2023-03-08T12:31:30;21.58;;;15.90;;
25125;SDS011;13106;50.808;5.670;2023-03-08T12:33:58;21.95;;;17.17;;
25125;SDS011;13106;50.808;5.670;2023-03-08T12:39:32;20.10;;;14.68;;
25125;SDS011;13106;50.808;5.670;2023-03-08T12:42:12;18.05;;;14.32;;
25125;SDS011;13106;50.808;5.670;2023-03-08T12:44:39;22.25;;;15.35;;
25125;SDS011;13106;50.808;5.670;2023-03-08T12:49:48;19.58;;;14.05;;
25125;SDS011;13106;50.808;5.670;2023-03-08T12:54:53;18.85;;;14.68;;
25125;SDS011;13106;50.808;5.670;2023-03-08T12:57:21;22.85;;;16.17;;
25125;SDS011;13106;50.808;5.670;2023-03-08T12:59:48;15.25;;;12.07;;
25125;SDS011;13106;50.808;5.670;2023-03-08T13:04:47;18.88;;;14.38;;
25125;SDS011;13106;50.808;5.670;2023-03-08T13:20:00;19.40;;;15.05;;
25125;SDS011;13106;50.808;5.670;2023-03-08T13:22:33;20.17;;;15.38;;
25125;SDS011;13106;50.808;5.670;2023-03-08T13:25:04;23.58;;;18.85;;
25125;SDS011;13106;50.808;5.670;2023-03-08T13:32:46;20.67;;;15.95;;
25125;SDS011;13106;50.808;5.670;2023-03-08T13:35:14;21.30;;;16.65;;
25125;SDS011;13106;50.808;5.670;2023-03-08T13:37:40;24.60;;;17.95;;
25125;SDS011;13106;50.808;5.670;2023-03-08T13:40:14;20.63;;;15.95;;
25125;SDS011;13106;50.808;5.670;2023-03-08T13:42:51;21.60;;;15.43;;
25125;SDS011;13106;50.808;5.670;2023-03-08T13:45:17;18.10;;;13.98;;
25125;SDS011;13106;50.808;5.670;2023-03-08T13:47:43;19.92;;;14.95;;
25125;SDS011;13106;50.808;5.670;2023-03-08T13:50:30;22.00;;;14.40;;
25125;SDS011;13106;50.808;5.670;2023-03-08T13:52:56;25.10;;;18.75;;
25125;SDS011;13106;50.808;5.670;2023-03-08T13:55:26;47.88;;;38.38;;
25125;SDS011;13106;50.808;5.670;2023-03-08T13:57:52;34.67;;;30.27;;
25125;SDS011;13106;50.808;5.670;2023-03-08T14:02:55;28.92;;;23.42;;
25125;SDS011;13106;50.808;5.670;2023-03-08T14:05:28;33.67;;;29.15;;
25125;SDS011;13106;50.808;5.670;2023-03-08T14:07:59;39.83;;;34.78;;
25125;SDS011;13106;50.808;5.670;2023-03-08T14:10:31;34.72;;;31.05;;
25125;SDS011;13106;50.808;5.670;2023-03-08T14:12:59;44.97;;;40.17;;
25125;SDS011;13106;50.808;5.670;2023-03-08T14:15:26;45.33;;;39.13;;
25125;SDS011;13106;50.808;5.670;2023-03-08T14:17:52;33.42;;;26.88;;
25125;SDS011;13106;50.808;5.670;2023-03-08T14:20:19;37.22;;;27.15;;
25125;SDS011;13106;50.808;5.670;2023-03-08T14:22:49;38.15;;;31.23;;
25125;SDS011;13106;50.808;5.670;2023-03-08T14:25:20;29.45;;;23.83;;
25125;SDS011;13106;50.808;5.670;2023-03-08T14:27:46;30.27;;;24.70;;
25125;SDS011;13106;50.808;5.670;2023-03-08T14:30:26;28.73;;;18.67;;
25125;SDS011;13106;50.808;5.670;2023-03-08T14:33:00;27.75;;;19.42;;
25125;SDS011;13106;50.808;5.670;2023-03-08T14:35:27;28.33;;;19.75;;
25125;SDS011;13106;50.808;5.670;2023-03-08T14:37:54;25.55;;;20.27;;
25125;SDS011;13106;50.808;5.670;2023-03-08T14:40:33;27.90;;;22.45;;
25125;SDS011;13106;50.808;5.670;2023-03-08T14:43:00;34.30;;;23.38;;
25125;SDS011;13106;50.808;5.670;2023-03-08T14:47:58;37.05;;;24.63;;
25125;SDS011;13106;50.808;5.670;2023-03-08T14:50:26;35.70;;;23.88;;
25125;SDS011;13106;50.808;5.670;2023-03-08T14:52:54;37.50;;;27.13;;
25125;SDS011;13106;50.808;5.670;2023-03-08T14:55:28;40.45;;;26.95;;
25125;SDS011;13106;50.808;5.670;2023-03-08T14:57:56;31.55;;;22.30;;
25125;SDS011;13106;50.808;5.670;2023-03-08T15:00:22;37.00;;;25.52;;
25125;SDS011;13106;50.808;5.670;2023-03-08T15:02:51;41.33;;;26.95;;
25125;SDS011;13106;50.808;5.670;2023-03-08T15:05:18;34.80;;;23.63;;
25125;SDS011;13106;50.808;5.670;2023-03-08T15:07:44;45.53;;;29.05;;
25125;SDS011;13106;50.808;5.670;2023-03-08T15:10:16;45.25;;;30.25;;
25125;SDS011;13106;50.808;5.670;2023-03-08T15:12:42;40.92;;;25.60;;
25125;SDS011;13106;50.808;5.670;2023-03-08T15:15:12;47.50;;;29.00;;
25125;SDS011;13106;50.808;5.670;2023-03-08T15:17:39;43.50;;;27.08;;
25125;SDS011;13106;50.808;5.670;2023-03-08T15:20:05;42.85;;;26.85;;
25125;SDS011;13106;50.808;5.670;2023-03-08T15:22:32;36.33;;;25.20;;
25125;SDS011;13106;50.808;5.670;2023-03-08T15:25:00;43.75;;;27.20;;
25125;SDS011;13106;50.808;5.670;2023-03-08T15:27:26;38.42;;;24.30;;
25125;SDS011;13106;50.808;5.670;2023-03-08T15:29:54;36.78;;;23.80;;
25125;SDS011;13106;50.808;5.670;2023-03-08T15:32:20;42.63;;;27.88;;
25125;SDS011;13106;50.808;5.670;2023-03-08T15:34:46;38.72;;;28.80;;
25125;SDS011;13106;50.808;5.670;2023-03-08T15:37:12;39.35;;;25.73;;
25125;SDS011;13106;50.808;5.670;2023-03-08T15:39:39;32.17;;;21.15;;
25125;SDS011;13106;50.808;5.670;2023-03-08T15:42:05;33.55;;;22.00;;
25125;SDS011;13106;50.808;5.670;2023-03-08T15:44:31;33.53;;;23.45;;
25125;SDS011;13106;50.808;5.670;2023-03-08T15:46:57;33.08;;;21.65;;
25125;SDS011;13106;50.808;5.670;2023-03-08T15:49:23;33.95;;;22.55;;
25125;SDS011;13106;50.808;5.670;2023-03-08T15:51:49;41.15;;;26.92;;
25125;SDS011;13106;50.808;5.670;2023-03-08T15:54:15;37.90;;;25.38;;
25125;SDS011;13106;50.808;5.670;2023-03-08T15:56:41;37.75;;;24.83;;
25125;SDS011;13106;50.808;5.670;2023-03-08T15:59:07;39.63;;;25.05;;
25125;SDS011;13106;50.808;5.670;2023-03-08T16:01:33;36.60;;;23.15;;